sensor_id;sensor_type;location;lat;lon;timestamp;temperature;humidity
24049;DHT22;12250;50.956;4.746;2022-09-09T00:00:44;14.20;99.90
24049;DHT22;12250;50.956;4.746;2022-09-09T00:03:40;14.20;99.90
24049;DHT22;12250;50.956;4.746;2022-09-09T00:06:33;14.20;99.90
24049;DHT22;12250;50.956;4.746;2022-09-09T00:09:21;14.20;99.90
24049;DHT22;12250;50.956;4.746;2022-09-09T00:11:59;14.30;99.90
24049;DHT22;12250;50.956;4.746;2022-09-09T00:17:39;14.20;99.90
24049;DHT22;12250;50.956;4.746;2022-09-09T00:25:58;14.10;99.90
24049;DHT22;12250;50.956;4.746;2022-09-09T00:28:27;14.10;99.90
24049;DHT22;12250;50.956;4.746;2022-09-09T00:30:53;14.10;99.90
24049;DHT22;12250;50.956;4.746;2022-09-09T00:33:23;14.10;99.90
24049;DHT22;12250;50.956;4.746;2022-09-09T00:35:53;14.10;99.90
24049;DHT22;12250;50.956;4.746;2022-09-09T00:40:55;14.10;99.90
24049;DHT22;12250;50.956;4.746;2022-09-09T00:43:30;14.10;99.90
24049;DHT22;12250;50.956;4.746;2022-09-09T00:49:09;14.10;99.90
24049;DHT22;12250;50.956;4.746;2022-09-09T00:57:30;14.10;99.90
24049;DHT22;12250;50.956;4.746;2022-09-09T01:02:48;14.20;99.90
24049;DHT22;12250;50.956;4.746;2022-09-09T01:11:04;14.50;99.90
24049;DHT22;12250;50.956;4.746;2022-09-09T01:13:32;14.50;99.90
24049;DHT22;12250;50.956;4.746;2022-09-09T01:16:00;14.60;99.90
24049;DHT22;12250;50.956;4.746;2022-09-09T01:18:54;14.70;99.90
24049;DHT22;12250;50.956;4.746;2022-09-09T01:26:41;14.80;99.90
24049;DHT22;12250;50.956;4.746;2022-09-09T01:29:10;14.70;99.90
24049;DHT22;12250;50.956;4.746;2022-09-09T01:31:41;14.70;99.90
24049;DHT22;12250;50.956;4.746;2022-09-09T01:34:12;14.80;99.90
24049;DHT22;12250;50.956;4.746;2022-09-09T01:36:39;14.70;99.90
24049;DHT22;12250;50.956;4.746;2022-09-09T01:39:07;14.80;99.90
24049;DHT22;12250;50.956;4.746;2022-09-09T01:41:33;14.80;99.90
24049;DHT22;12250;50.956;4.746;2022-09-09T01:43:59;14.70;99.90
24049;DHT22;12250;50.956;4.746;2022-09-09T01:46:25;14.70;99.90
24049;DHT22;12250;50.956;4.746;2022-09-09T01:48:52;14.70;99.90
24049;DHT22;12250;50.956;4.746;2022-09-09T01:51:19;14.70;99.90
24049;DHT22;12250;50.956;4.746;2022-09-09T01:53:45;14.70;99.90
24049;DHT22;12250;50.956;4.746;2022-09-09T02:04:32;14.60;99.90
24049;DHT22;12250;50.956;4.746;2022-09-09T02:07:00;14.60;99.90
24049;DHT22;12250;50.956;4.746;2022-09-09T02:09:26;14.50;99.90
24049;DHT22;12250;50.956;4.746;2022-09-09T02:12:09;14.50;99.90
24049;DHT22;12250;50.956;4.746;2022-09-09T02:14:42;14.50;99.90
24049;DHT22;12250;50.956;4.746;2022-09-09T02:17:14;14.50;99.90
24049;DHT22;12250;50.956;4.746;2022-09-09T02:19:51;14.50;99.90
24049;DHT22;12250;50.956;4.746;2022-09-09T02:22:22;14.40;99.90
24049;DHT22;12250;50.956;4.746;2022-09-09T02:24:49;14.40;99.90
24049;DHT22;12250;50.956;4.746;2022-09-09T02:27:20;14.40;99.90
24049;DHT22;12250;50.956;4.746;2022-09-09T02:29:47;14.40;99.90
24049;DHT22;12250;50.956;4.746;2022-09-09T02:32:18;14.50;99.90
24049;DHT22;12250;50.956;4.746;2022-09-09T02:34:51;14.50;99.90
24049;DHT22;12250;50.956;4.746;2022-09-09T02:37:22;14.50;99.90
24049;DHT22;12250;50.956;4.746;2022-09-09T02:39:50;14.50;99.90
24049;DHT22;12250;50.956;4.746;2022-09-09T02:42:16;14.50;99.90
24049;DHT22;12250;50.956;4.746;2022-09-09T02:44:42;14.50;99.90
24049;DHT22;12250;50.956;4.746;2022-09-09T02:57:47;14.50;99.90
24049;DHT22;12250;50.956;4.746;2022-09-09T03:00:14;14.50;99.90
24049;DHT22;12250;50.956;4.746;2022-09-09T03:02:41;14.50;99.90
24049;DHT22;12250;50.956;4.746;2022-09-09T03:05:07;14.50;99.90
24049;DHT22;12250;50.956;4.746;2022-09-09T03:07:33;14.50;99.90
24049;DHT22;12250;50.956;4.746;2022-09-09T03:09:59;14.50;99.90
24049;DHT22;12250;50.956;4.746;2022-09-09T03:12:24;14.60;99.90
24049;DHT22;12250;50.956;4.746;2022-09-09T03:14:50;14.60;99.90
24049;DHT22;12250;50.956;4.746;2022-09-09T03:17:16;14.70;99.90
24049;DHT22;12250;50.956;4.746;2022-09-09T03:19:42;14.70;99.90
24049;DHT22;12250;50.956;4.746;2022-09-09T03:22:09;14.80;99.90
24049;DHT22;12250;50.956;4.746;2022-09-09T03:24:35;14.70;99.90
24049;DHT22;12250;50.956;4.746;2022-09-09T03:27:01;14.70;99.90
24049;DHT22;12250;50.956;4.746;2022-09-09T03:29:26;14.80;99.90
24049;DHT22;12250;50.956;4.746;2022-09-09T03:31:52;14.80;99.90
24049;DHT22;12250;50.956;4.746;2022-09-09T03:34:18;14.80;99.90
24049;DHT22;12250;50.956;4.746;2022-09-09T03:36:43;14.70;99.90
24049;DHT22;12250;50.956;4.746;2022-09-09T03:39:09;14.70;99.90
24049;DHT22;12250;50.956;4.746;2022-09-09T03:41:34;14.70;99.90
24049;DHT22;12250;50.956;4.746;2022-09-09T03:44:02;14.70;99.90
24049;DHT22;12250;50.956;4.746;2022-09-09T03:46:28;14.70;99.90
24049;DHT22;12250;50.956;4.746;2022-09-09T03:48:53;14.70;99.90
24049;DHT22;12250;50.956;4.746;2022-09-09T03:51:20;14.70;99.90
24049;DHT22;12250;50.956;4.746;2022-09-09T03:53:46;14.80;99.90
24049;DHT22;12250;50.956;4.746;2022-09-09T03:56:12;14.80;99.90
24049;DHT22;12250;50.956;4.746;2022-09-09T03:58:38;14.70;99.90
24049;DHT22;12250;50.956;4.746;2022-09-09T04:01:13;14.70;99.90
24049;DHT22;12250;50.956;4.746;2022-09-09T04:03:40;14.70;99.90
24049;DHT22;12250;50.956;4.746;2022-09-09T04:06:07;14.70;99.90
24049;DHT22;12250;50.956;4.746;2022-09-09T04:08:35;14.70;99.90
24049;DHT22;12250;50.956;4.746;2022-09-09T04:11:02;14.70;99.90
24049;DHT22;12250;50.956;4.746;2022-09-09T04:13:32;14.70;99.90
24049;DHT22;12250;50.956;4.746;2022-09-09T04:16:00;14.60;99.90
24049;DHT22;12250;50.956;4.746;2022-09-09T04:18:27;14.60;99.90
24049;DHT22;12250;50.956;4.746;2022-09-09T04:20:53;14.70;99.90
24049;DHT22;12250;50.956;4.746;2022-09-09T04:23:20;14.60;99.90
24049;DHT22;12250;50.956;4.746;2022-09-09T04:25:52;14.50;99.90
24049;DHT22;12250;50.956;4.746;2022-09-09T04:28:19;14.60;99.90
24049;DHT22;12250;50.956;4.746;2022-09-09T04:30:46;14.60;99.90
24049;DHT22;12250;50.956;4.746;2022-09-09T04:33:12;14.50;99.90
24049;DHT22;12250;50.956;4.746;2022-09-09T04:35:38;14.50;99.90
24049;DHT22;12250;50.956;4.746;2022-09-09T04:38:04;14.60;99.90
24049;DHT22;12250;50.956;4.746;2022-09-09T04:40:30;14.60;99.90
24049;DHT22;12250;50.956;4.746;2022-09-09T04:43:00;14.60;99.90
24049;DHT22;12250;50.956;4.746;2022-09-09T04:45:25;14.70;99.90
24049;DHT22;12250;50.956;4.746;2022-09-09T04:47:52;14.80;99.90
24049;DHT22;12250;50.956;4.746;2022-09-09T04:50:18;14.90;99.90
24049;DHT22;12250;50.956;4.746;2022-09-09T04:52:44;15.00;99.90
24049;DHT22;12250;50.956;4.746;2022-09-09T04:55:10;15.00;99.90
24049;DHT22;12250;50.956;4.746;2022-09-09T04:57:38;14.90;99.90
24049;DHT22;12250;50.956;4.746;2022-09-09T05:00:05;14.80;99.90
24049;DHT22;12250;50.956;4.746;2022-09-09T05:02:31;14.80;99.90
24049;DHT22;12250;50.956;4.746;2022-09-09T05:04:58;14.80;99.90
24049;DHT22;12250;50.956;4.746;2022-09-09T05:07:24;14.80;99.90
24049;DHT22;12250;50.956;4.746;2022-09-09T05:09:50;14.70;99.90
24049;DHT22;12250;50.956;4.746;2022-09-09T05:12:16;14.70;99.90
24049;DHT22;12250;50.956;4.746;2022-09-09T05:14:43;14.70;99.90
24049;DHT22;12250;50.956;4.746;2022-09-09T05:17:09;14.70;99.90
24049;DHT22;12250;50.956;4.746;2022-09-09T05:19:35;14.60;99.90
24049;DHT22;12250;50.956;4.746;2022-09-09T05:22:01;14.70;99.90
24049;DHT22;12250;50.956;4.746;2022-09-09T05:24:27;14.60;99.90
24049;DHT22;12250;50.956;4.746;2022-09-09T05:26:53;14.70;99.90
24049;DHT22;12250;50.956;4.746;2022-09-09T05:29:19;14.60;99.90
24049;DHT22;12250;50.956;4.746;2022-09-09T05:31:46;14.70;99.90
24049;DHT22;12250;50.956;4.746;2022-09-09T05:34:12;14.70;99.90
24049;DHT22;12250;50.956;4.746;2022-09-09T05:36:38;14.70;99.90
24049;DHT22;12250;50.956;4.746;2022-09-09T05:39:04;14.80;99.90
24049;DHT22;12250;50.956;4.746;2022-09-09T05:41:29;14.80;99.90
24049;DHT22;12250;50.956;4.746;2022-09-09T05:43:56;14.80;99.90
24049;DHT22;12250;50.956;4.746;2022-09-09T05:46:25;14.90;99.90
24049;DHT22;12250;50.956;4.746;2022-09-09T05:48:52;15.00;99.90
24049;DHT22;12250;50.956;4.746;2022-09-09T05:51:26;15.10;99.90
24049;DHT22;12250;50.956;4.746;2022-09-09T05:53:53;15.20;99.90
24049;DHT22;12250;50.956;4.746;2022-09-09T05:56:22;15.30;99.90
24049;DHT22;12250;50.956;4.746;2022-09-09T05:58:50;15.40;99.90
24049;DHT22;12250;50.956;4.746;2022-09-09T06:01:19;15.60;99.90
24049;DHT22;12250;50.956;4.746;2022-09-09T06:03:47;15.70;99.90
24049;DHT22;12250;50.956;4.746;2022-09-09T06:06:15;15.70;99.90
24049;DHT22;12250;50.956;4.746;2022-09-09T06:08:42;15.90;99.90
24049;DHT22;12250;50.956;4.746;2022-09-09T06:11:15;15.80;99.90
24049;DHT22;12250;50.956;4.746;2022-09-09T06:13:41;15.90;99.90
24049;DHT22;12250;50.956;4.746;2022-09-09T06:16:12;15.90;99.90
24049;DHT22;12250;50.956;4.746;2022-09-09T06:18:38;16.00;99.90
24049;DHT22;12250;50.956;4.746;2022-09-09T06:21:14;16.00;99.90
24049;DHT22;12250;50.956;4.746;2022-09-09T06:23:40;16.00;99.90
24049;DHT22;12250;50.956;4.746;2022-09-09T06:26:14;16.00;99.90
24049;DHT22;12250;50.956;4.746;2022-09-09T06:28:40;16.10;99.90
24049;DHT22;12250;50.956;4.746;2022-09-09T06:31:09;16.10;99.90
24049;DHT22;12250;50.956;4.746;2022-09-09T06:33:40;16.00;99.90
24049;DHT22;12250;50.956;4.746;2022-09-09T06:36:14;16.00;99.90
24049;DHT22;12250;50.956;4.746;2022-09-09T06:38:41;16.20;99.90
24049;DHT22;12250;50.956;4.746;2022-09-09T06:41:08;16.50;99.90
24049;DHT22;12250;50.956;4.746;2022-09-09T06:43:34;16.70;99.90
24049;DHT22;12250;50.956;4.746;2022-09-09T06:46:06;16.80;99.90
24049;DHT22;12250;50.956;4.746;2022-09-09T06:48:33;16.80;99.90
24049;DHT22;12250;50.956;4.746;2022-09-09T06:51:16;16.80;99.90
24049;DHT22;12250;50.956;4.746;2022-09-09T06:53:44;16.70;99.90
24049;DHT22;12250;50.956;4.746;2022-09-09T06:58:42;16.90;99.90
24049;DHT22;12250;50.956;4.746;2022-09-09T07:01:11;17.30;99.90
24049;DHT22;12250;50.956;4.746;2022-09-09T07:03:38;17.60;99.90
24049;DHT22;12250;50.956;4.746;2022-09-09T07:06:04;17.70;99.90
24049;DHT22;12250;50.956;4.746;2022-09-09T07:08:31;17.80;99.90
24049;DHT22;12250;50.956;4.746;2022-09-09T07:11:04;17.90;99.90
24049;DHT22;12250;50.956;4.746;2022-09-09T07:13:33;17.90;99.90
24049;DHT22;12250;50.956;4.746;2022-09-09T07:16:06;17.90;99.90
24049;DHT22;12250;50.956;4.746;2022-09-09T07:18:32;17.80;99.90
24049;DHT22;12250;50.956;4.746;2022-09-09T07:20:58;17.70;99.90
24049;DHT22;12250;50.956;4.746;2022-09-09T07:23:24;17.70;99.90
24049;DHT22;12250;50.956;4.746;2022-09-09T07:25:51;17.70;99.90
24049;DHT22;12250;50.956;4.746;2022-09-09T07:28:18;17.80;99.90
24049;DHT22;12250;50.956;4.746;2022-09-09T07:30:53;17.70;99.90
24049;DHT22;12250;50.956;4.746;2022-09-09T07:33:19;17.70;99.90
24049;DHT22;12250;50.956;4.746;2022-09-09T07:35:45;17.70;99.90
24049;DHT22;12250;50.956;4.746;2022-09-09T07:38:11;17.70;99.90
24049;DHT22;12250;50.956;4.746;2022-09-09T07:40:37;17.70;99.90
24049;DHT22;12250;50.956;4.746;2022-09-09T07:43:03;17.70;99.90
24049;DHT22;12250;50.956;4.746;2022-09-09T07:45:28;17.60;99.90
24049;DHT22;12250;50.956;4.746;2022-09-09T07:47:54;17.70;99.90
24049;DHT22;12250;50.956;4.746;2022-09-09T07:50:22;17.60;99.90
24049;DHT22;12250;50.956;4.746;2022-09-09T07:52:49;17.70;99.90
24049;DHT22;12250;50.956;4.746;2022-09-09T07:55:15;17.80;99.90
24049;DHT22;12250;50.956;4.746;2022-09-09T07:57:40;17.90;99.90
24049;DHT22;12250;50.956;4.746;2022-09-09T08:00:06;18.20;99.90
24049;DHT22;12250;50.956;4.746;2022-09-09T08:02:32;18.30;99.90
24049;DHT22;12250;50.956;4.746;2022-09-09T08:04:58;18.20;99.90
24049;DHT22;12250;50.956;4.746;2022-09-09T08:07:24;18.10;99.90
24049;DHT22;12250;50.956;4.746;2022-09-09T08:09:49;18.00;99.90
24049;DHT22;12250;50.956;4.746;2022-09-09T08:12:15;17.90;99.90
24049;DHT22;12250;50.956;4.746;2022-09-09T08:14:42;17.80;99.90
24049;DHT22;12250;50.956;4.746;2022-09-09T08:17:08;17.80;99.90
24049;DHT22;12250;50.956;4.746;2022-09-09T08:19:33;17.80;99.90
24049;DHT22;12250;50.956;4.746;2022-09-09T08:22:02;17.90;99.90
24049;DHT22;12250;50.956;4.746;2022-09-09T08:24:28;17.90;99.90
24049;DHT22;12250;50.956;4.746;2022-09-09T08:26:54;18.10;99.90
24049;DHT22;12250;50.956;4.746;2022-09-09T08:29:20;18.10;99.90
24049;DHT22;12250;50.956;4.746;2022-09-09T08:31:48;18.00;99.90
24049;DHT22;12250;50.956;4.746;2022-09-09T08:34:15;18.20;99.90
24049;DHT22;12250;50.956;4.746;2022-09-09T08:36:43;18.30;99.90
24049;DHT22;12250;50.956;4.746;2022-09-09T08:39:11;18.30;99.90
24049;DHT22;12250;50.956;4.746;2022-09-09T08:50:30;19.40;99.90
24049;DHT22;12250;50.956;4.746;2022-09-09T08:53:04;19.40;99.90
24049;DHT22;12250;50.956;4.746;2022-09-09T08:55:59;19.50;99.90
24049;DHT22;12250;50.956;4.746;2022-09-09T08:58:28;19.40;99.90
24049;DHT22;12250;50.956;4.746;2022-09-09T09:09:43;19.10;99.90
24049;DHT22;12250;50.956;4.746;2022-09-09T09:12:17;18.90;99.90
24049;DHT22;12250;50.956;4.746;2022-09-09T09:14:46;18.70;99.90
24049;DHT22;12250;50.956;4.746;2022-09-09T09:17:18;18.40;99.90
24049;DHT22;12250;50.956;4.746;2022-09-09T09:19:46;18.20;99.90
24049;DHT22;12250;50.956;4.746;2022-09-09T09:22:16;18.00;99.90
24049;DHT22;12250;50.956;4.746;2022-09-09T09:24:55;18.00;99.90
24049;DHT22;12250;50.956;4.746;2022-09-09T09:30:02;17.90;99.90
24049;DHT22;12250;50.956;4.746;2022-09-09T09:32:33;17.80;99.90
24049;DHT22;12250;50.956;4.746;2022-09-09T09:35:02;17.80;99.90
24049;DHT22;12250;50.956;4.746;2022-09-09T09:37:32;17.70;99.90
24049;DHT22;12250;50.956;4.746;2022-09-09T09:40:14;17.80;99.90
24049;DHT22;12250;50.956;4.746;2022-09-09T09:43:01;17.90;99.90
24049;DHT22;12250;50.956;4.746;2022-09-09T09:45:41;18.00;99.90
24049;DHT22;12250;50.956;4.746;2022-09-09T09:48:12;17.90;99.90
24049;DHT22;12250;50.956;4.746;2022-09-09T09:50:49;18.00;99.90
24049;DHT22;12250;50.956;4.746;2022-09-09T09:53:25;17.90;99.90
24049;DHT22;12250;50.956;4.746;2022-09-09T09:58:23;17.90;99.90
24049;DHT22;12250;50.956;4.746;2022-09-09T10:00:51;18.00;99.90
24049;DHT22;12250;50.956;4.746;2022-09-09T10:03:29;18.10;99.90
24049;DHT22;12250;50.956;4.746;2022-09-09T10:05:56;18.20;99.90
24049;DHT22;12250;50.956;4.746;2022-09-09T10:08:26;18.30;99.90
24049;DHT22;12250;50.956;4.746;2022-09-09T10:19:15;18.30;99.90
24049;DHT22;12250;50.956;4.746;2022-09-09T10:27:07;18.30;99.90
24049;DHT22;12250;50.956;4.746;2022-09-09T10:32:42;18.10;99.90
24049;DHT22;12250;50.956;4.746;2022-09-09T10:35:38;18.00;99.90
24049;DHT22;12250;50.956;4.746;2022-09-09T10:38:18;18.00;99.90
24049;DHT22;12250;50.956;4.746;2022-09-09T11:00:00;18.90;99.90
24049;DHT22;12250;50.956;4.746;2022-09-09T11:02:31;19.10;99.90
24049;DHT22;12250;50.956;4.746;2022-09-09T11:07:44;19.60;99.90
24049;DHT22;12250;50.956;4.746;2022-09-09T11:10:32;19.90;99.90
24049;DHT22;12250;50.956;4.746;2022-09-09T11:13:05;20.30;99.90
24049;DHT22;12250;50.956;4.746;2022-09-09T11:15:41;20.60;99.90
24049;DHT22;12250;50.956;4.746;2022-09-09T11:18:15;20.70;99.90
24049;DHT22;12250;50.956;4.746;2022-09-09T11:20:44;20.90;99.90
24049;DHT22;12250;50.956;4.746;2022-09-09T11:23:18;21.10;99.90
24049;DHT22;12250;50.956;4.746;2022-09-09T11:25:57;22.00;99.90
24049;DHT22;12250;50.956;4.746;2022-09-09T11:28:31;22.90;99.90
24049;DHT22;12250;50.956;4.746;2022-09-09T11:34:31;23.50;99.90
24049;DHT22;12250;50.956;4.746;2022-09-09T11:40:07;23.60;99.90
24049;DHT22;12250;50.956;4.746;2022-09-09T11:42:33;23.70;99.90
24049;DHT22;12250;50.956;4.746;2022-09-09T11:45:19;24.10;99.90
24049;DHT22;12250;50.956;4.746;2022-09-09T11:47:52;24.60;99.90
24049;DHT22;12250;50.956;4.746;2022-09-09T11:52:45;24.60;99.90
24049;DHT22;12250;50.956;4.746;2022-09-09T11:58:03;23.80;99.90
24049;DHT22;12250;50.956;4.746;2022-09-09T12:00:44;23.80;99.90
24049;DHT22;12250;50.956;4.746;2022-09-09T12:06:08;23.90;99.90
24049;DHT22;12250;50.956;4.746;2022-09-09T12:08:35;23.70;99.90
24049;DHT22;12250;50.956;4.746;2022-09-09T12:11:02;23.50;99.90
24049;DHT22;12250;50.956;4.746;2022-09-09T12:13:30;23.60;99.90
24049;DHT22;12250;50.956;4.746;2022-09-09T12:15:58;23.70;99.90
24049;DHT22;12250;50.956;4.746;2022-09-09T12:18:38;24.10;99.90
24049;DHT22;12250;50.956;4.746;2022-09-09T12:21:18;24.00;99.70
24049;DHT22;12250;50.956;4.746;2022-09-09T12:23:55;23.90;99.90
24049;DHT22;12250;50.956;4.746;2022-09-09T12:32:17;23.80;99.90
24049;DHT22;12250;50.956;4.746;2022-09-09T12:35:04;24.10;99.90
24049;DHT22;12250;50.956;4.746;2022-09-09T12:37:45;24.10;99.90
24049;DHT22;12250;50.956;4.746;2022-09-09T12:40:23;24.30;99.90
24049;DHT22;12250;50.956;4.746;2022-09-09T12:42:49;24.20;99.40
24049;DHT22;12250;50.956;4.746;2022-09-09T12:45:20;24.20;99.90
24049;DHT22;12250;50.956;4.746;2022-09-09T12:47:48;24.30;99.90
24049;DHT22;12250;50.956;4.746;2022-09-09T12:50:21;24.10;99.70
24049;DHT22;12250;50.956;4.746;2022-09-09T12:52:50;24.20;99.90
24049;DHT22;12250;50.956;4.746;2022-09-09T12:55:19;24.30;99.70
24049;DHT22;12250;50.956;4.746;2022-09-09T12:57:47;24.40;99.60
24049;DHT22;12250;50.956;4.746;2022-09-09T13:00:21;24.30;99.30
24049;DHT22;12250;50.956;4.746;2022-09-09T13:02:50;24.10;99.40
24049;DHT22;12250;50.956;4.746;2022-09-09T13:05:20;24.10;99.90
24049;DHT22;12250;50.956;4.746;2022-09-09T13:07:46;24.10;99.80
24049;DHT22;12250;50.956;4.746;2022-09-09T13:10:15;24.00;99.60
24049;DHT22;12250;50.956;4.746;2022-09-09T13:12:42;24.00;99.90
24049;DHT22;12250;50.956;4.746;2022-09-09T13:15:19;24.00;99.90
24049;DHT22;12250;50.956;4.746;2022-09-09T13:17:54;24.10;99.90
24049;DHT22;12250;50.956;4.746;2022-09-09T13:20:21;24.20;99.70
24049;DHT22;12250;50.956;4.746;2022-09-09T13:22:49;24.30;99.60
24049;DHT22;12250;50.956;4.746;2022-09-09T13:27:59;24.60;98.30
24049;DHT22;12250;50.956;4.746;2022-09-09T13:35:30;26.10;97.20
24049;DHT22;12250;50.956;4.746;2022-09-09T13:37:56;26.30;96.70
24049;DHT22;12250;50.956;4.746;2022-09-09T13:40:23;26.20;95.70
24049;DHT22;12250;50.956;4.746;2022-09-09T13:42:55;26.00;96.10
24049;DHT22;12250;50.956;4.746;2022-09-09T13:45:23;25.80;95.80
24049;DHT22;12250;50.956;4.746;2022-09-09T13:47:52;25.80;95.00
24049;DHT22;12250;50.956;4.746;2022-09-09T13:50:28;25.60;95.80
24049;DHT22;12250;50.956;4.746;2022-09-09T13:52:56;25.50;96.30
24049;DHT22;12250;50.956;4.746;2022-09-09T13:55:25;25.20;96.10
24049;DHT22;12250;50.956;4.746;2022-09-09T14:00:20;24.70;97.00
24049;DHT22;12250;50.956;4.746;2022-09-09T14:02:46;24.30;97.10
24049;DHT22;12250;50.956;4.746;2022-09-09T14:05:12;24.00;98.00
24049;DHT22;12250;50.956;4.746;2022-09-09T14:07:39;23.60;98.30
24049;DHT22;12250;50.956;4.746;2022-09-09T14:10:06;23.40;99.30
24049;DHT22;12250;50.956;4.746;2022-09-09T14:12:32;23.40;99.50
24049;DHT22;12250;50.956;4.746;2022-09-09T14:14:58;23.30;99.00
24049;DHT22;12250;50.956;4.746;2022-09-09T14:17:25;23.50;99.50
24049;DHT22;12250;50.956;4.746;2022-09-09T14:19:54;23.80;99.30
24049;DHT22;12250;50.956;4.746;2022-09-09T14:22:20;24.10;98.20
24049;DHT22;12250;50.956;4.746;2022-09-09T14:24:47;24.30;97.50
24049;DHT22;12250;50.956;4.746;2022-09-09T14:27:12;24.50;97.30
24049;DHT22;12250;50.956;4.746;2022-09-09T14:29:38;24.60;97.00
24049;DHT22;12250;50.956;4.746;2022-09-09T14:32:03;24.40;96.80
24049;DHT22;12250;50.956;4.746;2022-09-09T14:34:29;24.30;96.80
24049;DHT22;12250;50.956;4.746;2022-09-09T14:36:57;24.30;95.90
24049;DHT22;12250;50.956;4.746;2022-09-09T14:39:22;24.30;95.80
24049;DHT22;12250;50.956;4.746;2022-09-09T14:41:48;24.30;95.70
24049;DHT22;12250;50.956;4.746;2022-09-09T14:44:13;24.30;95.80
24049;DHT22;12250;50.956;4.746;2022-09-09T14:46:39;24.00;96.00
24049;DHT22;12250;50.956;4.746;2022-09-09T14:49:05;23.80;96.90
24049;DHT22;12250;50.956;4.746;2022-09-09T14:51:30;23.70;96.70
24049;DHT22;12250;50.956;4.746;2022-09-09T14:53:58;23.60;97.40
24049;DHT22;12250;50.956;4.746;2022-09-09T14:56:27;23.60;97.40
24049;DHT22;12250;50.956;4.746;2022-09-09T14:58:54;23.60;97.60
24049;DHT22;12250;50.956;4.746;2022-09-09T15:01:21;23.50;98.30
24049;DHT22;12250;50.956;4.746;2022-09-09T15:03:52;23.50;98.20
24049;DHT22;12250;50.956;4.746;2022-09-09T15:06:20;23.50;97.70
24049;DHT22;12250;50.956;4.746;2022-09-09T15:08:46;23.70;98.20
24049;DHT22;12250;50.956;4.746;2022-09-09T15:11:13;24.00;98.00
24049;DHT22;12250;50.956;4.746;2022-09-09T15:13:41;24.10;96.90
24049;DHT22;12250;50.956;4.746;2022-09-09T15:16:10;24.20;97.20
24049;DHT22;12250;50.956;4.746;2022-09-09T15:18:36;24.20;96.90
24049;DHT22;12250;50.956;4.746;2022-09-09T15:21:04;24.30;96.80
24049;DHT22;12250;50.956;4.746;2022-09-09T15:23:35;24.10;96.90
24049;DHT22;12250;50.956;4.746;2022-09-09T15:26:01;24.00;97.20
24049;DHT22;12250;50.956;4.746;2022-09-09T15:28:27;23.90;97.80
24049;DHT22;12250;50.956;4.746;2022-09-09T15:30:53;23.70;97.80
24049;DHT22;12250;50.956;4.746;2022-09-09T15:33:20;23.50;97.90
24049;DHT22;12250;50.956;4.746;2022-09-09T15:35:46;23.50;98.60
24049;DHT22;12250;50.956;4.746;2022-09-09T15:38:12;23.70;99.00
24049;DHT22;12250;50.956;4.746;2022-09-09T15:40:42;23.70;97.70
24049;DHT22;12250;50.956;4.746;2022-09-09T15:43:08;23.60;97.50
24049;DHT22;12250;50.956;4.746;2022-09-09T15:45:36;23.60;97.00
24049;DHT22;12250;50.956;4.746;2022-09-09T15:48:03;23.50;97.50
24049;DHT22;12250;50.956;4.746;2022-09-09T15:50:29;23.60;97.40
24049;DHT22;12250;50.956;4.746;2022-09-09T15:52:57;23.70;97.00
24049;DHT22;12250;50.956;4.746;2022-09-09T15:55:22;23.60;96.70
24049;DHT22;12250;50.956;4.746;2022-09-09T15:57:49;23.60;97.00
24049;DHT22;12250;50.956;4.746;2022-09-09T16:00:15;23.60;96.80
24049;DHT22;12250;50.956;4.746;2022-09-09T16:02:41;23.50;96.90
24049;DHT22;12250;50.956;4.746;2022-09-09T16:05:08;23.30;97.20
24049;DHT22;12250;50.956;4.746;2022-09-09T16:07:33;23.10;97.70
24049;DHT22;12250;50.956;4.746;2022-09-09T16:10:00;22.90;98.50
24049;DHT22;12250;50.956;4.746;2022-09-09T16:12:26;23.00;98.60
24049;DHT22;12250;50.956;4.746;2022-09-09T16:14:51;22.90;98.60
24049;DHT22;12250;50.956;4.746;2022-09-09T16:17:17;22.80;98.80
24049;DHT22;12250;50.956;4.746;2022-09-09T16:19:44;22.80;99.30
24049;DHT22;12250;50.956;4.746;2022-09-09T16:22:11;22.70;99.40
24049;DHT22;12250;50.956;4.746;2022-09-09T16:24:36;22.60;99.40
24049;DHT22;12250;50.956;4.746;2022-09-09T16:27:02;22.60;99.80
24049;DHT22;12250;50.956;4.746;2022-09-09T16:29:28;22.50;99.80
24049;DHT22;12250;50.956;4.746;2022-09-09T16:31:54;22.40;99.90
24049;DHT22;12250;50.956;4.746;2022-09-09T16:34:20;22.30;99.90
24049;DHT22;12250;50.956;4.746;2022-09-09T16:36:47;22.20;99.90
24049;DHT22;12250;50.956;4.746;2022-09-09T16:39:15;22.10;99.90
24049;DHT22;12250;50.956;4.746;2022-09-09T16:41:42;22.00;99.90
24049;DHT22;12250;50.956;4.746;2022-09-09T16:44:11;21.90;99.90
24049;DHT22;12250;50.956;4.746;2022-09-09T16:46:40;21.80;99.90
24049;DHT22;12250;50.956;4.746;2022-09-09T16:49:11;21.60;99.90
24049;DHT22;12250;50.956;4.746;2022-09-09T16:51:50;21.50;99.90
24049;DHT22;12250;50.956;4.746;2022-09-09T16:54:19;21.40;99.90
24049;DHT22;12250;50.956;4.746;2022-09-09T16:56:46;21.30;99.90
24049;DHT22;12250;50.956;4.746;2022-09-09T16:59:14;21.20;99.90
24049;DHT22;12250;50.956;4.746;2022-09-09T17:01:42;21.10;99.90
24049;DHT22;12250;50.956;4.746;2022-09-09T17:04:14;21.10;99.90
24049;DHT22;12250;50.956;4.746;2022-09-09T17:06:44;21.00;99.90
24049;DHT22;12250;50.956;4.746;2022-09-09T17:09:11;20.90;99.90
24049;DHT22;12250;50.956;4.746;2022-09-09T17:11:38;20.80;99.90
24049;DHT22;12250;50.956;4.746;2022-09-09T17:14:04;20.60;99.90
24049;DHT22;12250;50.956;4.746;2022-09-09T17:16:32;20.50;99.90
24049;DHT22;12250;50.956;4.746;2022-09-09T17:18:59;20.50;99.90
24049;DHT22;12250;50.956;4.746;2022-09-09T17:21:27;20.50;99.90
24049;DHT22;12250;50.956;4.746;2022-09-09T17:23:54;20.50;99.90
24049;DHT22;12250;50.956;4.746;2022-09-09T17:26:22;20.60;99.90
24049;DHT22;12250;50.956;4.746;2022-09-09T17:28:48;20.60;99.90
24049;DHT22;12250;50.956;4.746;2022-09-09T17:31:16;20.60;99.90
24049;DHT22;12250;50.956;4.746;2022-09-09T17:33:45;20.70;99.90
24049;DHT22;12250;50.956;4.746;2022-09-09T17:36:18;20.70;99.90
24049;DHT22;12250;50.956;4.746;2022-09-09T17:38:44;20.70;99.90
24049;DHT22;12250;50.956;4.746;2022-09-09T17:41:16;20.80;99.90
24049;DHT22;12250;50.956;4.746;2022-09-09T17:43:42;20.90;99.90
24049;DHT22;12250;50.956;4.746;2022-09-09T17:46:13;20.90;99.90
24049;DHT22;12250;50.956;4.746;2022-09-09T17:48:40;20.80;99.90
24049;DHT22;12250;50.956;4.746;2022-09-09T17:51:08;20.70;99.90
24049;DHT22;12250;50.956;4.746;2022-09-09T17:53:40;20.50;99.90
24049;DHT22;12250;50.956;4.746;2022-09-09T17:56:07;20.40;99.90
24049;DHT22;12250;50.956;4.746;2022-09-09T17:58:33;20.30;99.90
24049;DHT22;12250;50.956;4.746;2022-09-09T18:01:04;20.10;99.90
24049;DHT22;12250;50.956;4.746;2022-09-09T18:03:34;20.00;99.90
24049;DHT22;12250;50.956;4.746;2022-09-09T18:06:02;19.90;99.90
24049;DHT22;12250;50.956;4.746;2022-09-09T18:08:28;19.80;99.90